createdAt,value
2017-11-04T11:49:42.385Z,14.68
2017-11-04T11:50:42.729Z,14.6
2017-11-04T11:51:42.417Z,14.7
2017-11-04T11:52:42.096Z,14.72
2017-11-04T11:53:42.433Z,14.77
2017-11-04T11:54:42.451Z,14.77
2017-11-04T11:55:42.458Z,14.78
2017-11-04T11:56:42.139Z,14.79
2017-11-04T11:57:42.504Z,14.88
2017-11-04T11:58:42.499Z,14.91
2017-11-04T11:59:42.851Z,14.89
2017-11-04T12:00:42.873Z,14.94
2017-11-04T12:01:42.894Z,14.91
2017-11-04T12:02:42.571Z,14.99
2017-11-04T12:03:42.576Z,14.86
2017-11-04T12:04:42.254Z,14.97
2017-11-04T12:05:42.946Z,14.99
2017-11-04T12:06:42.969Z,14.96
2017-11-04T12:07:42.302Z,15.04
2017-11-04T12:08:43.141Z,15.03
2017-11-04T12:09:43.003Z,15.09
2017-11-04T12:10:42.359Z,15.09
2017-11-04T12:11:43.045Z,14.99
2017-11-04T12:12:43.066Z,15.03
2017-11-04T12:13:43.122Z,14.99
2017-11-04T12:14:42.758Z,15.04
2017-11-04T12:15:42.772Z,15.11
2017-11-04T12:16:42.790Z,15.11
2017-11-04T12:17:42.807Z,15.07
2017-11-04T12:18:42.832Z,15.1
2017-11-04T12:19:42.843Z,15.07
2017-11-04T12:20:43.193Z,15.07
2017-11-04T12:21:43.215Z,15.09
2017-11-04T12:22:42.893Z,15.1
2017-11-04T12:23:42.911Z,15.15
2017-11-04T12:24:42.928Z,15.03
2017-11-04T12:25:43.297Z,15.07
2017-11-04T12:26:42.628Z,15.04
2017-11-04T12:27:42.646Z,15.17
2017-11-04T12:28:42.998Z,15.18
2017-11-04T12:29:42.683Z,15.07
2017-11-04T12:30:43.380Z,15.18
2017-11-04T12:31:43.388Z,15.09
2017-11-04T12:32:43.084Z,15.22
2017-11-04T12:33:43.092Z,15.17
2017-11-04T12:34:43.110Z,15.19
2017-11-04T12:35:43.129Z,15.18
2017-11-04T12:36:43.150Z,15.21
2017-11-04T12:37:43.505Z,15.27
2017-11-04T12:38:43.516Z,15.19
2017-11-04T12:39:43.538Z,15.25
2017-11-04T12:40:43.217Z,15.19
2017-11-04T12:41:43.599Z,15.31
2017-11-04T12:42:43.256Z,15.35
2017-11-04T12:43:42.942Z,15.29
2017-11-04T12:44:42.961Z,15.29
2017-11-04T12:45:43.656Z,15.35
2017-11-04T12:46:43.672Z,15.36
2017-11-04T12:47:43.684Z,15.35
2017-11-04T12:48:43.371Z,15.43
2017-11-04T12:49:43.389Z,15.33
2017-11-04T12:50:43.076Z,15.36
2017-11-04T12:51:43.427Z,15.39
2017-11-04T12:52:43.780Z,15.43
2017-11-04T12:53:43.462Z,15.46
2017-11-04T12:54:43.479Z,15.43
2017-11-04T12:55:43.507Z,15.49
2017-11-04T12:56:43.521Z,15.51
2017-11-04T12:57:43.539Z,15.49
2017-11-04T12:58:43.223Z,15.44
2017-11-04T12:59:43.928Z,15.55
2017-11-04T13:00:43.943Z,15.51
2017-11-04T13:01:43.614Z,15.46
2017-11-04T13:02:43.642Z,15.47
2017-11-04T13:03:43.656Z,15.49
2017-11-04T13:04:43.408Z,15.49
2017-11-04T13:05:43.696Z,15.47
2017-11-04T13:06:44.049Z,15.4
2017-11-04T13:07:44.069Z,15.47
2017-11-04T13:08:44.086Z,15.49
2017-11-04T13:09:43.769Z,15.47
2017-11-04T13:10:43.789Z,15.43
2017-11-04T13:11:43.475Z,15.46
2017-11-04T13:12:43.497Z,15.4
2017-11-04T13:13:43.846Z,15.47
2017-11-04T13:14:43.879Z,15.42
2017-11-04T13:15:43.561Z,15.47
2017-11-04T13:16:44.248Z,15.4
2017-11-04T13:17:43.938Z,15.44
2017-11-04T13:18:43.612Z,15.43
2017-11-04T13:19:43.639Z,15.35
2017-11-04T13:20:43.984Z,15.46
2017-11-04T13:21:44.334Z,15.36
2017-11-04T13:22:44.024Z,15.31
2017-11-04T13:23:44.075Z,15.37
2017-11-04T13:24:44.401Z,15.33
2017-11-04T13:25:44.440Z,15.39
2017-11-04T13:26:44.451Z,15.44
2017-11-04T13:27:44.127Z,15.39
2017-11-04T13:28:44.479Z,15.36
2017-11-04T13:29:44.162Z,15.39
2017-11-04T13:30:44.184Z,15.4
2017-11-04T13:31:44.548Z,15.39
2017-11-04T13:32:44.220Z,15.39
2017-11-04T13:33:44.577Z,15.43
2017-11-04T13:34:44.260Z,15.42
2017-11-04T13:35:44.281Z,15.43
2017-11-04T13:36:44.304Z,15.4
2017-11-04T13:37:43.987Z,15.36
2017-11-04T13:38:44.339Z,15.42
2017-11-04T13:39:44.693Z,15.35
2017-11-04T13:40:44.710Z,15.36
2017-11-04T13:41:44.396Z,15.36
2017-11-04T13:42:44.759Z,15.44
2017-11-04T13:43:44.439Z,15.39
2017-11-04T13:44:44.468Z,15.36
2017-11-04T13:45:44.826Z,15.36
2017-11-04T13:46:44.530Z,15.35
2017-11-04T13:47:44.858Z,15.4
2017-11-04T13:48:44.540Z,15.31
2017-11-04T13:49:44.892Z,15.31
2017-11-04T13:50:44.908Z,15.35
2017-11-04T13:51:44.939Z,15.29
2017-11-04T13:52:44.280Z,15.29
2017-11-04T13:53:44.637Z,15.35
2017-11-04T13:54:44.991Z,15.35
2017-11-04T13:55:44.683Z,15.24
2017-11-04T13:56:45.048Z,15.25
2017-11-04T13:57:45.056Z,15.25
2017-11-04T13:58:44.735Z,15.28
2017-11-04T13:59:44.772Z,15.28
2017-11-04T14:00:44.779Z,15.29
2017-11-04T14:01:45.132Z,15.29
2017-11-04T14:02:44.479Z,15.31
2017-11-04T14:03:45.169Z,15.24
2017-11-04T14:04:44.519Z,15.29
2017-11-04T14:05:45.213Z,15.18
2017-11-04T14:06:44.892Z,15.17
2017-11-04T14:07:45.247Z,15.24
2017-11-04T14:08:45.269Z,15.22
2017-11-04T14:09:44.623Z,15.18
2017-11-04T14:10:44.973Z,15.15
2017-11-04T14:11:44.992Z,15.15
2017-11-04T14:12:45.027Z,15.18
2017-11-04T14:13:44.703Z,15.19
2017-11-04T14:14:45.387Z,15.21
2017-11-04T14:15:44.736Z,15.09
2017-11-04T14:16:45.092Z,15.22
2017-11-04T14:17:45.113Z,15.19
2017-11-04T14:18:45.135Z,15.07
2017-11-04T14:19:45.487Z,15.1
2017-11-04T14:20:45.174Z,15.14
2017-11-04T14:21:45.193Z,15.07
2017-11-04T14:22:45.226Z,15.17
2017-11-04T14:23:45.241Z,15.07
2017-11-04T14:24:45.266Z,15.02
2017-11-04T14:25:45.275Z,15.04
2017-11-04T14:26:45.296Z,15.02
2017-11-04T14:27:45.644Z,14.99
2017-11-04T14:28:45.666Z,14.97
2017-11-04T14:29:45.017Z,15.02
2017-11-04T14:30:45.038Z,14.88
2017-11-04T14:31:45.728Z,14.96
2017-11-04T14:32:45.079Z,14.94
2017-11-04T14:33:45.098Z,14.94
2017-11-04T14:34:45.120Z,14.94
2017-11-04T14:35:45.810Z,14.97
2017-11-04T14:36:45.497Z,14.94
2017-11-04T14:37:45.510Z,14.89
2017-11-04T14:38:45.531Z,14.86
2017-11-04T14:39:45.551Z,14.94
2017-11-04T14:40:45.913Z,14.99
2017-11-04T14:41:45.258Z,14.85
2017-11-04T14:42:45.614Z,14.88
2017-11-04T14:43:45.293Z,14.82
2017-11-04T14:44:45.652Z,14.84
2017-11-04T14:45:46.004Z,14.79
2017-11-04T14:46:45.695Z,14.77
2017-11-04T14:47:45.711Z,14.77
2017-11-04T14:48:46.062Z,14.88
2017-11-04T14:49:45.434Z,14.79
2017-11-04T14:50:45.784Z,14.78
2017-11-04T14:51:45.455Z,14.73
2017-11-04T14:52:46.147Z,14.79
2017-11-04T14:53:45.840Z,14.79
2017-11-04T14:54:45.512Z,14.78
2017-11-04T14:55:45.869Z,14.66
2017-11-04T14:56:45.887Z,14.72
2017-11-04T14:57:45.907Z,14.72
2017-11-04T14:58:45.945Z,14.73
2017-11-04T14:59:45.950Z,14.73
2017-11-04T15:00:45.966Z,14.65
2017-11-04T15:01:45.991Z,14.7
2017-11-04T15:02:46.009Z,14.66
2017-11-04T15:03:46.365Z,14.62
2017-11-04T15:04:45.712Z,14.6
2017-11-04T15:05:46.063Z,14.5
2017-11-04T15:06:46.089Z,14.51
2017-11-04T15:07:45.771Z,14.59
2017-11-04T15:08:46.126Z,14.5
2017-11-04T15:09:46.541Z,14.5
2017-11-04T15:10:46.510Z,14.5
2017-11-04T15:11:46.528Z,14.5
2017-11-04T15:12:45.865Z,14.51
2017-11-04T15:13:45.887Z,14.37
2017-11-04T15:14:46.576Z,14.51
2017-11-04T15:15:45.929Z,14.47
2017-11-04T15:16:45.953Z,14.44
2017-11-04T15:17:46.636Z,14.4
2017-11-04T15:18:46.328Z,14.36
2017-11-04T15:19:46.343Z,14.33
2017-11-04T15:20:46.360Z,14.32
2017-11-04T15:21:46.714Z,14.3
2017-11-04T15:22:46.737Z,14.28
2017-11-04T15:23:46.425Z,14.3
2017-11-04T15:24:46.443Z,14.3
2017-11-04T15:25:46.790Z,14.22
2017-11-04T15:26:46.820Z,14.29
2017-11-04T15:27:46.828Z,14.17
2017-11-04T15:28:46.522Z,14.23
2017-11-04T15:29:46.546Z,14.26
2017-11-04T15:30:46.561Z,14.07
2017-11-04T15:31:46.592Z,14.17
2017-11-04T15:32:46.934Z,14.22
2017-11-04T15:33:46.967Z,14.15
2017-11-04T15:34:46.975Z,14.04
2017-11-04T15:35:46.700Z,14.12
2017-11-04T15:36:46.675Z,14.08
2017-11-04T15:37:47.039Z,14.07
2017-11-04T15:38:46.375Z,14.04
2017-11-04T15:39:47.069Z,14
2017-11-04T15:40:46.750Z,14
2017-11-04T15:41:47.109Z,13.93
2017-11-04T15:42:47.130Z,13.93
2017-11-04T15:43:46.807Z,13.95
2017-11-04T15:44:46.494Z,13.92
2017-11-04T15:45:46.849Z,13.92
2017-11-04T15:46:47.201Z,13.85
2017-11-04T15:47:46.888Z,13.85
2017-11-04T15:48:46.908Z,13.92
2017-11-04T15:49:46.925Z,13.83
2017-11-04T15:50:46.939Z,13.83
2017-11-04T15:51:46.966Z,13.78
2017-11-04T15:52:47.316Z,13.79
2017-11-04T15:53:46.671Z,13.83
2017-11-04T15:54:47.020Z,13.78
2017-11-04T15:55:46.704Z,13.78
2017-11-04T15:56:47.059Z,13.78
2017-11-04T15:57:47.084Z,13.79
2017-11-04T15:58:46.765Z,13.75
2017-11-04T15:59:46.785Z,13.72
2017-11-04T16:00:47.466Z,13.71
2017-11-04T16:01:46.819Z,13.7
2017-11-04T16:02:47.508Z,13.67
2017-11-04T16:03:47.191Z,13.63
2017-11-04T16:04:47.216Z,13.62
2017-11-04T16:05:47.574Z,13.63
2017-11-04T16:06:47.249Z,13.53
2017-11-04T16:07:47.270Z,13.57
2017-11-04T16:08:47.626Z,13.56
2017-11-04T16:09:46.973Z,13.53
2017-11-04T16:10:46.994Z,13.53
2017-11-04T16:11:47.351Z,13.47
2017-11-04T16:12:47.375Z,13.46
2017-11-04T16:13:47.713Z,13.47
2017-11-04T16:14:47.437Z,13.49
2017-11-04T16:15:47.422Z,13.33
2017-11-04T16:16:47.775Z,13.49
2017-11-04T16:17:47.799Z,13.42
2017-11-04T16:18:47.478Z,13.46
2017-11-04T16:19:47.181Z,13.31
2017-11-04T16:20:47.183Z,13.35
2017-11-04T16:21:47.871Z,13.42
2017-11-04T16:23:55.406Z,13.33
2017-11-04T16:24:05.512Z,13.35
2017-11-04T16:25:05.196Z,13.37
2017-11-04T16:26:04.876Z,13.35
2017-11-04T16:27:05.237Z,13.39
2017-11-04T16:28:05.260Z,13.31
2017-11-04T16:29:05.282Z,13.28
2017-11-04T16:30:05.002Z,13.28
2017-11-04T16:31:05.648Z,13.22
2017-11-04T16:32:05.670Z,13.22
2017-11-04T16:33:05.346Z,13.25
2017-11-04T16:34:05.377Z,13.2
2017-11-04T16:35:05.711Z,13.25
2017-11-04T16:36:05.742Z,13.2
2017-11-04T16:37:05.417Z,13.23
2017-11-04T16:38:05.438Z,13.16
2017-11-04T16:39:05.456Z,13.2
2017-11-04T16:40:05.819Z,13.18
2017-11-04T16:41:05.506Z,13.19
2017-11-04T16:42:05.868Z,13.2
2017-11-04T16:43:05.872Z,13.05
2017-11-04T16:44:05.564Z,13.01
2017-11-04T16:45:05.571Z,13.04
2017-11-04T16:46:05.934Z,13.03
2017-11-04T16:47:05.944Z,13.15
2017-11-04T16:48:05.633Z,13.03
2017-11-04T16:49:05.639Z,13.15
2017-11-04T16:50:06.044Z,13.11
2017-11-04T16:51:05.706Z,13.09
2017-11-04T16:52:05.734Z,13.09
2017-11-04T16:53:05.730Z,13.11
2017-11-04T16:54:05.401Z,13.09
2017-11-04T16:55:05.420Z,13.09
2017-11-04T16:56:05.784Z,13.08
2017-11-04T16:57:05.804Z,13.03
2017-11-04T16:58:05.842Z,13.11
2017-11-04T16:59:06.169Z,13.08
2017-11-04T17:00:05.883Z,13.01
2017-11-04T17:01:05.862Z,13.04
2017-11-04T17:02:05.565Z,12.97
2017-11-04T17:03:06.243Z,13.03
2017-11-04T17:04:05.944Z,12.95
2017-11-04T17:05:05.943Z,13.04
2017-11-04T17:06:06.303Z,13.04
2017-11-04T17:07:05.658Z,13.04
2017-11-04T17:08:06.354Z,13.03
2017-11-04T17:09:06.350Z,12.95
2017-11-04T17:10:06.057Z,13
2017-11-04T17:11:06.074Z,13
2017-11-04T17:12:06.084Z,13.04
2017-11-04T17:13:06.132Z,13.03
2017-11-04T17:14:06.120Z,12.98
2017-11-04T17:15:06.467Z,13.05
2017-11-04T17:16:06.501Z,13.03
2017-11-04T17:17:06.169Z,13.05
2017-11-04T17:18:06.523Z,12.94
2017-11-04T17:19:06.208Z,12.93
2017-11-04T17:20:05.884Z,12.91
2017-11-04T17:21:06.574Z,12.93
2017-11-04T17:22:06.274Z,12.93
2017-11-04T17:23:05.961Z,12.98
2017-11-04T17:24:06.322Z,12.91
2017-11-04T17:25:06.310Z,12.93
2017-11-04T17:26:06.335Z,12.9
2017-11-04T17:27:06.017Z,12.93
2017-11-04T17:28:06.395Z,12.94
2017-11-04T17:29:06.260Z,12.91
2017-11-04T17:30:06.784Z,12.95
2017-11-04T17:31:06.439Z,12.91
2017-11-04T17:32:06.469Z,12.95
2017-11-04T17:33:06.153Z,12.94
2017-11-04T17:34:06.505Z,12.94
2017-11-04T17:35:06.500Z,12.87
2017-11-04T17:36:06.199Z,12.86
2017-11-04T17:37:06.558Z,12.86
2017-11-04T17:38:06.896Z,12.9
2017-11-04T17:39:06.254Z,12.83
2017-11-04T17:40:06.611Z,12.79
2017-11-04T17:41:06.285Z,12.82
2017-11-04T17:42:06.647Z,12.83
2017-11-04T17:43:06.656Z,12.8
2017-11-04T17:44:06.691Z,12.82
2017-11-04T17:45:06.349Z,12.78
2017-11-04T17:46:06.699Z,12.75
2017-11-04T17:47:06.720Z,12.8
2017-11-04T17:48:06.738Z,12.75
2017-11-04T17:49:06.754Z,12.82
2017-11-04T17:50:06.777Z,12.78
2017-11-04T17:51:07.151Z,12.72
2017-11-04T17:52:06.811Z,12.76
2017-11-04T17:53:07.169Z,12.72
2017-11-04T17:54:06.851Z,12.78
2017-11-04T17:55:07.208Z,12.67
2017-11-04T17:56:06.902Z,12.73
2017-11-04T17:57:06.903Z,12.73
2017-11-04T17:58:07.272Z,12.67
2017-11-04T17:59:07.303Z,12.64
2017-11-04T18:00:07.326Z,12.65
2017-11-04T18:01:06.990Z,12.67
2017-11-04T18:02:06.996Z,12.62
2017-11-04T18:03:06.702Z,12.62
2017-11-04T18:04:07.393Z,12.7
2017-11-04T18:05:07.396Z,12.67
2017-11-04T18:06:07.403Z,12.64
2017-11-04T18:07:07.086Z,12.72
2017-11-04T18:08:07.108Z,12.62
2017-11-04T18:09:07.498Z,12.67
2017-11-04T18:10:07.146Z,12.67
2017-11-04T18:11:07.161Z,12.64
2017-11-04T18:12:07.189Z,12.65
2017-11-04T18:13:07.196Z,12.65
2017-11-04T18:14:07.568Z,12.62
2017-11-04T18:15:07.233Z,12.67
2017-11-04T18:16:06.912Z,12.7
2017-11-04T18:17:07.601Z,12.67
2017-11-04T18:18:07.294Z,12.6
2017-11-04T18:19:07.650Z,12.7
2017-11-04T18:20:07.347Z,12.61
2017-11-04T18:21:07.680Z,12.57
2017-11-04T18:22:07.359Z,12.6
2017-11-04T18:23:07.391Z,12.53
2017-11-04T18:24:07.072Z,12.64
2017-11-04T18:25:07.419Z,12.5
2017-11-04T18:26:07.805Z,12.47
2017-11-04T18:27:07.454Z,12.53
2017-11-04T18:28:07.162Z,12.49
2017-11-04T18:29:07.485Z,12.47
2017-11-04T18:30:07.849Z,12.49
2017-11-04T18:31:07.526Z,12.5
2017-11-04T18:32:07.881Z,12.47
2017-11-04T18:33:07.556Z,12.46
2017-11-04T18:34:07.907Z,12.54
2017-11-04T18:35:07.610Z,12.5
2017-11-04T18:36:07.948Z,12.46
2017-11-04T18:37:07.960Z,12.49
2017-11-04T18:38:08.019Z,12.45
2017-11-04T18:39:08.006Z,12.4
2017-11-04T18:40:07.690Z,12.39
2017-11-04T18:41:07.700Z,12.39
2017-11-04T18:42:07.447Z,12.49
2017-11-04T18:43:07.755Z,12.42
2017-11-04T18:44:07.435Z,12.45
2017-11-04T18:45:07.454Z,12.39
2017-11-04T18:46:08.167Z,12.37
2017-11-04T18:47:07.853Z,12.45
2017-11-04T18:48:07.843Z,12.47
2017-11-04T18:49:07.522Z,12.43
2017-11-04T18:50:08.214Z,12.47
2017-11-04T18:51:08.244Z,12.43
2017-11-04T18:52:07.938Z,12.42
2017-11-04T18:53:07.924Z,12.46
2017-11-04T18:54:08.299Z,12.37
2017-11-04T18:55:08.284Z,12.45
2017-11-04T18:56:08.316Z,12.36
2017-11-04T18:57:08.340Z,12.42
2017-11-04T18:58:08.023Z,12.42
2017-11-04T18:59:08.059Z,12.39
2017-11-04T19:00:08.069Z,12.45
2017-11-04T19:01:08.064Z,12.39
2017-11-04T19:02:07.756Z,12.39
2017-11-04T19:03:08.099Z,12.45
2017-11-04T19:04:07.790Z,12.35
2017-11-04T19:05:08.172Z,12.36
2017-11-04T19:06:08.191Z,12.32
2017-11-04T19:07:07.862Z,12.4
2017-11-04T19:08:08.542Z,12.32
2017-11-04T19:09:08.214Z,12.4
2017-11-04T19:10:08.258Z,12.42
2017-11-04T19:11:08.273Z,12.36
2017-11-04T19:12:08.280Z,12.39
2017-11-04T19:13:08.648Z,12.37
2017-11-04T19:14:08.291Z,12.42
2017-11-04T19:15:08.674Z,12.42
2017-11-04T19:16:08.345Z,12.28
2017-11-04T19:17:08.724Z,12.39
2017-11-04T19:18:08.392Z,12.36
2017-11-04T19:19:08.723Z,12.31
2017-11-04T19:20:08.783Z,12.42
2017-11-04T19:21:08.821Z,12.29
2017-11-04T19:22:08.452Z,12.27
2017-11-04T19:23:08.465Z,12.31
2017-11-04T19:24:08.490Z,12.27
2017-11-04T19:25:08.823Z,12.29
2017-11-04T19:26:08.524Z,12.22
2017-11-04T19:27:08.204Z,12.29
2017-11-04T19:28:08.567Z,12.29
2017-11-04T19:29:08.913Z,12.24
2017-11-04T19:30:08.603Z,12.29
2017-11-04T19:31:08.635Z,12.28
2017-11-04T19:32:08.650Z,12.24
2017-11-04T19:33:08.327Z,12.27
2017-11-04T19:34:08.666Z,12.21
2017-11-04T19:35:08.706Z,12.27
2017-11-04T19:36:08.734Z,12.27
2017-11-04T19:37:08.365Z,12.27
2017-11-04T19:38:08.735Z,12.31
2017-11-04T19:39:08.820Z,12.24
2017-11-04T19:40:08.789Z,12.32
2017-11-04T19:41:08.774Z,12.21
2017-11-04T19:42:08.460Z,12.24
2017-11-04T19:43:08.836Z,12.27
2017-11-04T19:44:08.851Z,12.21
2017-11-04T19:45:08.847Z,12.27
2017-11-04T19:46:08.523Z,12.29
2017-11-04T19:47:08.882Z,12.25
2017-11-04T19:48:09.261Z,12.25
2017-11-04T19:49:08.935Z,12.22
2017-11-04T19:50:09.295Z,12.25
2017-11-04T19:51:09.322Z,12.21
2017-11-04T19:52:09.317Z,12.12
2017-11-04T19:53:09.361Z,12.18
2017-11-04T19:54:09.057Z,12.17
2017-11-04T19:55:09.416Z,12.2
2017-11-04T19:56:09.067Z,12.15
2017-11-04T19:57:08.739Z,12.09
2017-11-04T19:58:09.090Z,12.13
2017-11-04T19:59:09.164Z,12.09
2017-11-04T20:00:09.123Z,12.1
2017-11-04T20:01:09.141Z,12.07
2017-11-04T20:02:09.493Z,12.09
2017-11-04T20:03:09.203Z,12.03
2017-11-04T20:04:09.519Z,12.06
2017-11-04T20:05:08.895Z,12.12
2017-11-04T20:06:09.246Z,12.1
2017-11-04T20:07:08.960Z,12.06
2017-11-04T20:08:09.270Z,12.09
2017-11-04T20:09:09.277Z,12.03
2017-11-04T20:10:08.968Z,11.97
2017-11-04T20:11:09.340Z,11.99
2017-11-04T20:12:09.323Z,11.9
2017-11-04T20:13:09.357Z,11.99
2017-11-04T20:14:09.389Z,12.02
2017-11-04T20:15:09.403Z,12.04
2017-11-04T20:16:09.788Z,11.99
2017-11-04T20:17:09.448Z,12.03
2017-11-04T20:18:09.453Z,11.97
2017-11-04T20:19:09.454Z,12
2017-11-04T20:20:09.151Z,12.02
2017-11-04T20:21:09.497Z,12.06
2017-11-04T20:22:09.499Z,11.99
2017-11-04T20:23:09.516Z,11.99
2017-11-04T20:24:09.535Z,12.06
2017-11-04T20:25:09.240Z,12.07
2017-11-04T20:26:09.631Z,12
2017-11-04T20:27:09.630Z,12.03
2017-11-04T20:28:09.614Z,12.04
2017-11-04T20:29:09.683Z,12.02
2017-11-04T20:30:09.991Z,11.97
2017-11-04T20:31:09.995Z,11.95
2017-11-04T20:32:09.717Z,11.97
2017-11-04T20:33:09.732Z,11.91
2017-11-04T20:34:09.404Z,11.99
2017-11-04T20:35:09.421Z,12.03
2017-11-04T20:36:09.765Z,11.94
2017-11-04T20:37:09.778Z,11.95
2017-11-04T20:38:10.130Z,11.87
2017-11-04T20:39:09.842Z,11.91
2017-11-04T20:40:09.847Z,11.97
2017-11-04T20:41:09.866Z,11.88
2017-11-04T20:42:09.900Z,11.84
2017-11-04T20:43:10.220Z,11.94
2017-11-04T20:44:09.920Z,11.95
2017-11-04T20:45:10.302Z,11.97
2017-11-04T20:46:09.960Z,11.87
2017-11-04T20:47:09.946Z,11.94
2017-11-04T20:48:09.989Z,11.87
2017-11-04T20:49:10.309Z,11.88
2017-11-04T20:50:09.668Z,11.87
2017-11-04T20:51:10.005Z,11.88
2017-11-04T20:52:10.401Z,11.87
2017-11-04T20:53:10.074Z,11.9
2017-11-04T20:54:10.090Z,11.88
2017-11-04T20:55:09.752Z,11.88
2017-11-04T20:56:10.465Z,11.8
2017-11-04T20:57:10.160Z,11.84
2017-11-04T20:58:10.131Z,11.73
2017-11-04T20:59:10.498Z,11.87
2017-11-04T21:00:10.547Z,11.88
2017-11-04T21:01:10.515Z,11.77
2017-11-04T21:02:10.216Z,11.8
2017-11-04T21:03:10.239Z,11.83
2017-11-04T21:04:10.617Z,11.87
2017-11-04T21:05:10.609Z,11.87
2017-11-04T21:06:10.298Z,11.86
2017-11-04T21:07:09.959Z,11.86
2017-11-04T21:08:09.980Z,11.81
2017-11-04T21:09:10.697Z,11.73
2017-11-04T21:10:10.340Z,11.72
2017-11-04T21:11:10.380Z,11.88
2017-11-04T21:12:10.386Z,11.72
2017-11-04T21:13:10.724Z,11.8
2017-11-04T21:14:10.444Z,11.86
2017-11-04T21:15:10.815Z,11.72
2017-11-04T21:16:10.796Z,11.81
2017-11-04T21:17:10.492Z,11.72
2017-11-04T21:18:10.855Z,11.81
2017-11-04T21:19:10.183Z,11.8
2017-11-04T21:20:10.905Z,11.83
2017-11-04T21:21:10.220Z,11.84
2017-11-04T21:22:10.572Z,11.78
2017-11-04T21:23:10.576Z,11.8
2017-11-04T21:24:10.240Z,11.77
2017-11-04T21:25:10.617Z,11.8
2017-11-04T21:26:10.954Z,11.75
2017-11-04T21:27:10.994Z,11.73
2017-11-04T21:28:10.988Z,11.72
2017-11-04T21:29:11.049Z,11.75
2017-11-04T21:30:10.720Z,11.75
2017-11-04T21:31:10.751Z,11.73
2017-11-04T21:32:10.770Z,11.78
2017-11-04T21:33:10.444Z,11.77
2017-11-04T21:34:10.437Z,11.75
2017-11-04T21:35:11.117Z,11.66
2017-11-04T21:36:10.499Z,11.73
2017-11-04T21:37:11.166Z,11.66
2017-11-04T21:38:11.180Z,11.7
2017-11-04T21:39:10.517Z,11.72
2017-11-04T21:40:11.211Z,11.72
2017-11-04T21:41:10.892Z,11.72
2017-11-04T21:42:10.905Z,11.73
2017-11-04T21:43:10.924Z,11.63
2017-11-04T21:44:10.615Z,11.68
2017-11-04T21:45:10.651Z,11.72
2017-11-04T21:46:10.667Z,11.73
2017-11-04T21:47:10.667Z,11.69
2017-11-04T21:48:11.026Z,11.8
2017-11-04T21:49:11.394Z,11.7
2017-11-04T21:50:10.703Z,11.72
2017-11-04T21:51:11.096Z,11.7
2017-11-04T21:52:11.087Z,11.66
2017-11-04T21:53:11.450Z,11.69
2017-11-04T21:54:11.441Z,11.69
2017-11-04T21:55:11.485Z,11.75
2017-11-04T21:56:11.489Z,11.77
2017-11-04T21:57:11.513Z,11.72
2017-11-04T21:58:11.522Z,11.69
2017-11-04T21:59:11.207Z,11.68
2017-11-04T22:00:11.217Z,11.68
2017-11-04T22:01:11.253Z,11.69
2017-11-04T22:02:11.271Z,11.63
2017-11-04T22:03:11.260Z,11.65
2017-11-04T22:04:11.293Z,11.68
2017-11-04T22:05:11.347Z,11.68
2017-11-04T22:06:11.312Z,11.63
2017-11-04T22:07:11.335Z,11.69
2017-11-04T22:08:11.689Z,11.7
2017-11-04T22:09:11.395Z,11.57
2017-11-04T22:10:11.394Z,11.65
2017-11-04T22:11:11.086Z,11.62
2017-11-04T22:12:11.408Z,11.6
2017-11-04T22:13:11.757Z,11.57
2017-11-04T22:14:11.460Z,11.62
2017-11-04T22:15:11.844Z,11.52
2017-11-04T22:16:11.153Z,11.57
2017-11-04T22:17:11.197Z,11.6
2017-11-04T22:18:11.516Z,11.6
2017-11-04T22:19:11.186Z,11.59
2017-11-04T22:20:11.588Z,11.59
2017-11-04T22:21:11.604Z,11.6
2017-11-04T22:22:11.903Z,11.54
2017-11-04T22:23:11.638Z,11.52
2017-11-04T22:24:11.954Z,11.6
2017-11-04T22:25:11.627Z,11.52
2017-11-04T22:26:12.024Z,11.57
2017-11-04T22:27:12.032Z,11.54
2017-11-04T22:28:11.695Z,11.54
2017-11-04T22:29:11.737Z,11.54
2017-11-04T22:30:11.405Z,11.54
2017-11-04T22:31:11.736Z,11.54
2017-11-04T22:32:11.762Z,11.57
2017-11-04T22:33:12.156Z,11.5
2017-11-04T22:34:11.784Z,11.5
2017-11-04T22:35:11.486Z,11.51
2017-11-04T22:36:12.164Z,11.5
2017-11-04T22:37:12.200Z,11.52
2017-11-04T22:38:11.528Z,11.5
2017-11-04T22:39:12.240Z,11.45
2017-11-04T22:40:11.883Z,11.47
2017-11-04T22:41:12.227Z,11.5
2017-11-04T22:42:11.586Z,11.47
2017-11-04T22:43:12.282Z,11.45
2017-11-04T22:44:12.304Z,11.47
2017-11-04T22:45:12.314Z,11.48
2017-11-04T22:46:12.329Z,11.48
2017-11-04T22:47:11.996Z,11.5
2017-11-04T22:48:12.033Z,11.51
2017-11-04T22:49:12.377Z,11.55
2017-11-04T22:50:12.073Z,11.52
2017-11-04T22:51:12.064Z,11.55
2017-11-04T22:52:12.107Z,11.48
2017-11-04T22:53:11.780Z,11.51
2017-11-04T22:54:12.135Z,11.55
2017-11-04T22:55:12.143Z,11.44
2017-11-04T22:56:12.165Z,11.41
2017-11-04T22:57:12.211Z,11.5
2017-11-04T22:58:12.201Z,11.54
2017-11-04T22:59:12.550Z,11.45
2017-11-04T23:00:12.239Z,11.41
2017-11-04T23:01:12.244Z,11.45
2017-11-04T23:02:12.621Z,11.41
2017-11-04T23:03:12.625Z,11.47
2017-11-04T23:04:12.628Z,11.35
2017-11-04T23:05:12.651Z,11.45
2017-11-04T23:06:12.329Z,11.44
2017-11-04T23:07:12.353Z,11.4
2017-11-04T23:08:12.365Z,11.41
2017-11-04T23:09:12.700Z,11.41
2017-11-04T23:10:12.055Z,11.41
2017-11-04T23:11:12.427Z,11.37
2017-11-04T23:12:12.430Z,11.37
2017-11-04T23:13:12.115Z,11.36
2017-11-04T23:14:12.482Z,11.35
2017-11-04T23:15:12.496Z,11.43
2017-11-04T23:16:12.824Z,11.41
2017-11-04T23:17:12.531Z,11.4
2017-11-04T23:18:12.855Z,11.37
2017-11-04T23:19:12.541Z,11.36
2017-11-04T23:20:12.569Z,11.35
2017-11-04T23:21:12.579Z,11.37
2017-11-04T23:22:12.591Z,11.35
2017-11-04T23:23:12.955Z,11.3
2017-11-04T23:24:12.641Z,11.36
2017-11-04T23:25:12.643Z,11.32
2017-11-04T23:26:12.659Z,11.33
2017-11-04T23:27:13.022Z,11.33
2017-11-04T23:28:13.035Z,11.27
2017-11-04T23:29:13.053Z,11.3
2017-11-04T23:30:12.721Z,11.35
2017-11-04T23:31:12.744Z,11.25
2017-11-04T23:32:13.107Z,11.25
2017-11-04T23:33:12.774Z,11.22
2017-11-04T23:34:12.455Z,11.27
2017-11-04T23:35:13.155Z,11.27
2017-11-04T23:36:12.829Z,11.32
2017-11-04T23:37:13.183Z,11.29
2017-11-04T23:38:12.856Z,11.32
2017-11-04T23:39:12.875Z,11.26
2017-11-04T23:40:12.550Z,11.22
2017-11-04T23:45:41.097Z,11.22
2017-11-04T23:46:40.782Z,11.25
2017-11-04T23:47:40.786Z,11.26
